This is the latest recevied weather packets stored in our database for station/object VK3BKO-13. If no packets are shown the sender has not sent any weather packets the latest 10 day(s).
| Time | Temp. | Humidity | Pressure | Rain* | Wind** | Luminosity | Snow |
|---|---|---|---|---|---|---|---|
| 1777778224 | 19.44° C | 79% | 1009.5 hPa | 0 mm | - | 113 W/m² | - |
| 1777777324 | 20° C | 77% | 1009.5 hPa | 0 mm | - | 146 W/m² | - |
| 1777776424 | 20.56° C | 75% | 1009.9 hPa | 0.25 mm | - | 562 W/m² | - |
| 1777775523 | 20° C | 80% | 1009.5 hPa | 0.25 mm | - | 595 W/m² | - |
| 1777774624 | 18.33° C | 84% | 1009.5 hPa | 0.25 mm | - | 206 W/m² | - |
| 1777773724 | 17.78° C | 86% | 1009.2 hPa | 0.25 mm | - | 107 W/m² | - |
| 1777772824 | 17.78° C | 86% | 1009.2 hPa | 3.81 mm | - | 26 W/m² | - |
| 1777771924 | 17.78° C | 89% | 1010.5 hPa | 2.79 mm | - | 15 W/m² | - |
| 1777770124 | 17.78° C | 89% | 1010.5 hPa | 0.25 mm | - | 18 W/m² | - |
| 1777768324 | 18.33° C | 84% | 1011.2 hPa | 2.03 mm | - | 14 W/m² | - |
| 1777767424 | 18.89° C | 81% | 1010.9 hPa | 0.25 mm | - | 22 W/m² | - |
| 1777766524 | 20° C | 77% | 1010.9 hPa | 0 mm | - | 34 W/m² | - |
| 1777764727 | 21.11° C | 67% | 1010.5 hPa | 0 mm | - | 35 W/m² | - |
| 1777763824 | 21.11° C | 66% | 1010.5 hPa | 0 mm | - | 74 W/m² | - |
| 1777762024 | 21.11° C | 67% | 1010.2 hPa | 0 mm | - | 86 W/m² | - |
| 1777761124 | 20.56° C | 69% | 1010.5 hPa | 0 mm | - | 134 W/m² | - |
| 1777760224 | 20° C | 71% | 1011.2 hPa | 0 mm | - | 50 W/m² | - |
| 1777759324 | 20° C | 72% | 1011.2 hPa | 0 mm | - | 38 W/m² | - |
| 1777758424 | 20° C | 73% | 1011.2 hPa | 0 mm | - | 21 W/m² | - |
| 1777752124 | 20.56° C | 65% | 1011.9 hPa | 0 mm | - | 0 W/m² | - |
| 1777747624 | 21.67° C | 60% | 1011.5 hPa | 0 mm | - | 0 W/m² | - |
| 1777739524 | 17.22° C | 78% | 1012.2 hPa | 0 mm | - | 0 W/m² | - |
| 1777738624 | 17.78° C | 77% | 1012.2 hPa | 0 mm | - | 0 W/m² | - |
| 1777735924 | 18.33° C | 76% | 1012.6 hPa | 0 mm | - | 0 W/m² | - |
| 1777735024 | 18.89° C | 73% | 1012.6 hPa | 0 mm | - | 0 W/m² | - |
* Rain latest hour (hover to see other rain measurements)
** Current wind speed in m/s (hover to see current wind gust speed)